createdAt,value
2023-01-18T00:03:21.781Z,0.514832
2023-01-18T00:06:47.023Z,0.514832
2023-01-18T00:10:12.249Z,0.595398
2023-01-18T00:13:37.537Z,0.61554
2023-01-18T00:17:02.721Z,0.575256
2023-01-18T00:20:27.968Z,0.514832
2023-01-18T00:23:53.222Z,0.383911
2023-01-18T00:27:18.477Z,0.333557
2023-01-18T00:30:43.738Z,0.24292
2023-01-18T00:34:08.934Z,0.293274
2023-01-18T00:37:34.185Z,0.24292
2023-01-18T00:40:59.430Z,0.383911
2023-01-18T00:44:24.700Z,0.444336
2023-01-18T00:47:49.974Z,0.595398
2023-01-18T00:51:15.177Z,0.534973
2023-01-18T00:54:40.465Z,0.444336
2023-01-18T00:58:05.743Z,0.414124
2023-01-18T01:01:31.101Z,0.49469
2023-01-18T01:04:56.998Z,0.464478
2023-01-18T01:08:22.214Z,0.293274
2023-01-18T01:11:47.463Z,0.424194
2023-01-18T01:15:12.692Z,0.504761
2023-01-18T01:18:37.938Z,0.645752
2023-01-18T01:22:03.234Z,0.686035
2023-01-18T01:25:28.445Z,0.716248
2023-01-18T01:28:53.719Z,0.645752
2023-01-18T01:32:18.968Z,0.393982
2023-01-18T01:35:44.259Z,0.36377
2023-01-18T01:39:09.462Z,0.313416
2023-01-18T01:42:34.702Z,0.36377
2023-01-18T01:45:59.976Z,0.383911
2023-01-18T01:49:25.208Z,0.383911
2023-01-18T01:52:50.444Z,0.293274
2023-01-18T01:56:15.724Z,0.212708
2023-01-18T01:59:40.922Z,0.142212
2023-01-18T02:03:06.162Z,0.24292
2023-01-18T02:06:31.673Z,0.182495
2023-01-18T02:09:56.663Z,0.152283
2023-01-18T02:13:21.941Z,0.232849
2023-01-18T02:16:47.202Z,0.263062
2023-01-18T02:20:12.477Z,0.152283
2023-01-18T02:23:37.689Z,0.182495
2023-01-18T02:27:02.942Z,0.232849
2023-01-18T02:30:28.188Z,0.36377
2023-01-18T02:33:53.426Z,0.545044
2023-01-18T02:37:18.676Z,0.756531
2023-01-18T02:40:43.906Z,0.837097
2023-01-18T02:44:09.150Z,0.857239
2023-01-18T02:47:34.402Z,0.937805
2023-01-18T02:50:59.659Z,0.907593
2023-01-18T02:54:24.877Z,0.897522
2023-01-18T02:57:50.144Z,0.796814
2023-01-18T03:01:15.551Z,0.796814
2023-01-18T03:04:40.692Z,0.86731
2023-01-18T03:08:05.909Z,0.726318
2023-01-18T03:11:31.199Z,0.796814
2023-01-18T03:14:56.449Z,0.857239
2023-01-18T03:18:21.684Z,0.907593
2023-01-18T03:21:46.978Z,0.837097
2023-01-18T03:25:12.203Z,0.716248
2023-01-18T03:28:37.465Z,0.756531
2023-01-18T03:32:02.696Z,0.575256
2023-01-18T03:35:27.960Z,0.595398
2023-01-18T03:38:53.203Z,0.696106
2023-01-18T03:42:18.452Z,0.686035
2023-01-18T03:45:43.709Z,0.696106
2023-01-18T03:49:08.961Z,0.74646
2023-01-18T03:52:34.199Z,0.786743
2023-01-18T03:55:59.484Z,0.796814
2023-01-18T03:59:24.696Z,0.776672
2023-01-18T04:02:50.008Z,0.786743
2023-01-18T04:06:15.177Z,0.786743
2023-01-18T04:09:40.413Z,0.786743
2023-01-18T04:13:05.688Z,0.756531
2023-01-18T04:16:30.931Z,0.756531
2023-01-18T04:19:56.158Z,0.74646
2023-01-18T04:23:21.394Z,0.686035
2023-01-18T04:26:46.683Z,0.726318
2023-01-18T04:30:11.952Z,0.605469
2023-01-18T04:33:37.291Z,0.504761
2023-01-18T04:37:02.566Z,0.424194
2023-01-18T04:40:29.033Z,0.393982
2023-01-18T04:43:54.288Z,0.414124
2023-01-18T04:47:19.600Z,0.424194
2023-01-18T04:50:44.816Z,0.323486
2023-01-18T04:54:10.063Z,0.353699
2023-01-18T04:57:35.425Z,0.293274
2023-01-18T05:01:00.739Z,0.293274
2023-01-18T05:04:25.925Z,0.36377
2023-01-18T05:07:53.986Z,0.424194
2023-01-18T05:11:19.228Z,0.444336
2023-01-18T05:14:44.516Z,0.424194
2023-01-18T05:18:09.773Z,0.414124
2023-01-18T05:21:35.164Z,0.545044
2023-01-18T05:25:00.399Z,0.605469
2023-01-18T05:28:25.635Z,0.605469
2023-01-18T05:31:51.041Z,0.514832
2023-01-18T05:35:16.255Z,0.595398
2023-01-18T05:38:41.519Z,0.605469
2023-01-18T05:42:06.774Z,0.595398
2023-01-18T05:45:32.078Z,0.605469
2023-01-18T05:48:57.294Z,0.595398
2023-01-18T05:52:22.566Z,0.605469
2023-01-18T05:55:47.875Z,0.655823
2023-01-18T05:59:13.144Z,0.61554
2023-01-18T06:02:38.431Z,0.424194
2023-01-18T06:06:03.746Z,0.504761
2023-01-18T06:09:29.125Z,0.565186
2023-01-18T06:12:54.444Z,0.575256
2023-01-18T06:16:19.826Z,0.49469
2023-01-18T06:19:44.987Z,0.474548
2023-01-18T06:23:10.259Z,0.504761
2023-01-18T06:26:36.042Z,0.444336
2023-01-18T06:30:01.510Z,0.565186
2023-01-18T06:33:26.883Z,0.716248
2023-01-18T06:36:52.212Z,0.837097
2023-01-18T06:40:17.488Z,0.827026
2023-01-18T06:43:42.796Z,0.857239
2023-01-18T06:47:08.102Z,0.857239
2023-01-18T06:50:33.427Z,0.907593
2023-01-18T06:53:58.662Z,0.837097
2023-01-18T06:57:23.944Z,0.857239
2023-01-18T07:00:49.309Z,0.827026
2023-01-18T07:04:14.601Z,0.827026
2023-01-18T07:07:39.859Z,0.696106
2023-01-18T07:11:05.169Z,0.645752
2023-01-18T07:14:30.448Z,0.645752
2023-01-18T07:17:55.704Z,0.645752
2023-01-18T07:21:20.999Z,0.675964
2023-01-18T07:24:46.208Z,0.726318
2023-01-18T07:28:11.486Z,0.74646
2023-01-18T07:31:36.817Z,0.696106
2023-01-18T07:35:02.296Z,0.61554
2023-01-18T07:38:27.578Z,0.61554
2023-01-18T07:41:52.782Z,0.61554
2023-01-18T07:45:18.012Z,0.74646
2023-01-18T07:48:43.323Z,0.756531
2023-01-18T07:52:08.624Z,0.756531
2023-01-18T07:55:33.887Z,0.776672
2023-01-18T07:58:59.105Z,0.796814
2023-01-18T08:02:24.404Z,0.827026
2023-01-18T08:05:49.604Z,0.907593
2023-01-18T08:09:14.861Z,0.937805
2023-01-18T08:12:40.163Z,0.937805
2023-01-18T08:16:05.513Z,0.978088
2023-01-18T08:19:30.700Z,1.018372
2023-01-18T08:22:56.228Z,1.018372
2023-01-18T08:26:21.299Z,0.907593
2023-01-18T08:29:46.597Z,1.018372
2023-01-18T08:33:11.871Z,1.11908
2023-01-18T08:36:37.266Z,1.11908
2023-01-18T08:40:02.395Z,1.078796
2023-01-18T08:43:27.663Z,1.088867
2023-01-18T08:46:52.945Z,1.11908
2023-01-18T08:50:18.196Z,1.229858
2023-01-18T08:53:43.495Z,1.270142
2023-01-18T08:57:08.780Z,1.199646
2023-01-18T09:00:34.061Z,1.179504
2023-01-18T09:03:59.331Z,1.058655
2023-01-18T09:07:24.571Z,1.078796
2023-01-18T09:10:49.880Z,1.139221
2023-01-18T09:14:15.143Z,1.179504
2023-01-18T09:17:40.440Z,1.300354
2023-01-18T09:21:05.760Z,1.401062
2023-01-18T09:24:31.066Z,1.401062
2023-01-18T09:27:56.369Z,1.401062
2023-01-18T09:31:21.734Z,1.50177
2023-01-18T09:34:46.950Z,1.542053
2023-01-18T09:38:12.263Z,1.481628
2023-01-18T09:41:37.520Z,1.37085
2023-01-18T09:45:02.790Z,1.401062
2023-01-18T09:48:28.069Z,1.451416
2023-01-18T09:51:53.383Z,1.50177
2023-01-18T09:55:18.671Z,1.421204
2023-01-18T09:58:43.975Z,1.50177
2023-01-18T10:02:09.396Z,1.481628
2023-01-18T10:05:34.531Z,1.50177
2023-01-18T10:08:59.858Z,1.50177
2023-01-18T10:12:25.173Z,1.481628
2023-01-18T10:15:50.465Z,1.421204
2023-01-18T10:19:15.748Z,1.340637
2023-01-18T10:22:41.017Z,1.330566
2023-01-18T10:26:06.340Z,1.411133
2023-01-18T10:29:31.923Z,1.471558
2023-01-18T10:32:57.285Z,1.521912
2023-01-18T10:36:22.250Z,1.50177
2023-01-18T10:39:47.528Z,1.50177
2023-01-18T10:43:12.893Z,1.50177
2023-01-18T10:46:38.241Z,1.521912
2023-01-18T10:50:03.511Z,1.471558
2023-01-18T10:53:31.776Z,1.411133
2023-01-18T10:56:57.081Z,1.360779
2023-01-18T11:00:22.525Z,1.330566
2023-01-18T11:03:47.678Z,1.471558
2023-01-18T11:07:12.922Z,1.481628
2023-01-18T11:10:38.185Z,1.411133
2023-01-18T11:14:03.477Z,1.300354
2023-01-18T11:17:28.753Z,1.290283
2023-01-18T11:20:54.109Z,1.320496
2023-01-18T11:24:19.369Z,1.37085
2023-01-18T11:27:44.673Z,1.451416
2023-01-18T11:31:09.986Z,1.411133
2023-01-18T11:34:35.306Z,1.330566
2023-01-18T11:38:01.076Z,1.270142
2023-01-18T11:41:25.941Z,1.199646
2023-01-18T11:44:51.190Z,1.149292
2023-01-18T11:48:16.441Z,1.159363
2023-01-18T11:51:43.661Z,1.11908
2023-01-18T11:55:07.353Z,1.058655
2023-01-18T11:58:32.660Z,1.199646
2023-01-18T12:01:58.011Z,1.270142
2023-01-18T12:05:23.238Z,1.239929
2023-01-18T12:08:48.539Z,1.149292
2023-01-18T12:12:19.194Z,1.159363
2023-01-18T12:15:39.170Z,1.149292
2023-01-18T12:19:04.466Z,1.088867
2023-01-18T12:22:29.772Z,1.139221
2023-01-18T12:26:06.983Z,1.199646
2023-01-18T12:29:20.348Z,1.260071
2023-01-18T12:32:45.584Z,1.300354
2023-01-18T12:36:10.856Z,1.159363
2023-01-18T12:39:36.122Z,1.058655
2023-01-18T12:43:01.392Z,0.99823
2023-01-18T12:46:26.774Z,0.87738
2023-01-18T12:49:51.918Z,0.907593
2023-01-18T12:53:17.209Z,1.038513
2023-01-18T12:56:42.485Z,0.968018
2023-01-18T13:00:07.792Z,0.957947
2023-01-18T13:03:33.121Z,0.99823
2023-01-18T13:06:59.084Z,1.038513
2023-01-18T13:10:24.347Z,0.937805
2023-01-18T13:13:49.618Z,0.86731
2023-01-18T13:17:14.881Z,0.937805
2023-01-18T13:20:40.223Z,0.907593
2023-01-18T13:24:05.442Z,0.857239
2023-01-18T13:27:30.727Z,0.857239
2023-01-18T13:30:55.999Z,0.776672
2023-01-18T13:34:21.310Z,0.776672
2023-01-18T13:37:46.673Z,0.696106
2023-01-18T13:41:11.911Z,0.786743
2023-01-18T13:44:37.209Z,0.686035
2023-01-18T13:48:02.763Z,0.61554
2023-01-18T13:51:27.773Z,0.595398
2023-01-18T13:54:58.617Z,0.61554
2023-01-18T13:58:24.278Z,0.686035
2023-01-18T14:01:49.589Z,0.716248
2023-01-18T14:05:14.885Z,0.686035
2023-01-18T14:08:40.181Z,0.716248
2023-01-18T14:12:05.589Z,0.74646
2023-01-18T14:15:30.863Z,0.796814
2023-01-18T14:18:56.197Z,0.837097
2023-01-18T14:22:21.553Z,0.786743
2023-01-18T14:25:46.840Z,0.756531
2023-01-18T14:29:13.211Z,0.857239
2023-01-18T15:05:05.122Z,0.827026
2023-01-18T15:08:30.407Z,0.756531
2023-01-18T15:11:55.669Z,0.786743
2023-01-18T15:15:20.955Z,0.645752
2023-01-18T15:18:46.220Z,0.545044
2023-01-18T15:22:11.588Z,0.474548
2023-01-18T15:25:36.823Z,0.444336
2023-01-18T15:29:02.191Z,0.474548
2023-01-18T15:32:28.466Z,0.534973
2023-01-18T15:35:53.739Z,0.595398
2023-01-18T15:39:19.129Z,0.595398
2023-01-18T15:42:44.415Z,0.565186
2023-01-18T15:46:09.839Z,0.545044
2023-01-18T15:49:35.015Z,0.424194
2023-01-18T15:53:00.305Z,0.444336
2023-01-18T15:56:25.637Z,0.393982
2023-01-18T15:59:50.869Z,0.263062
2023-01-18T16:03:16.175Z,0.202637
2023-01-18T16:06:41.468Z,0.112
2023-01-18T16:10:06.746Z,0.041504
2023-01-18T16:13:32.120Z,0.081787
2023-01-18T16:16:57.488Z,-0.028992
2023-01-18T16:20:22.608Z,0.021362
2023-01-18T16:23:47.962Z,-0.069275
2023-01-18T16:27:13.280Z,-0.109558
2023-01-18T16:30:38.701Z,-0.069275
2023-01-18T16:34:03.797Z,-0.099487
2023-01-18T16:37:29.090Z,-0.079346
2023-01-18T16:40:54.515Z,-0.049133
2023-01-18T16:44:20.263Z,0.071716
2023-01-18T16:47:46.197Z,0.112
2023-01-18T16:51:11.739Z,0.172424
2023-01-18T16:54:37.058Z,0.313416
2023-01-18T16:58:02.660Z,0.323486
2023-01-18T17:01:28.303Z,0.212708
2023-01-18T17:04:53.720Z,0.232849
2023-01-18T17:08:24.232Z,0.263062
2023-01-18T17:11:52.629Z,0.212708
2023-01-18T17:15:20.014Z,0.24292
2023-01-18T17:18:43.693Z,0.202637
2023-01-18T17:22:09.428Z,0.172424
2023-01-18T17:25:34.708Z,0.152283
2023-01-18T17:29:00.021Z,0.172424
2023-01-18T17:32:25.492Z,0.212708
2023-01-18T17:35:50.858Z,0.172424
2023-01-18T17:39:16.307Z,0.041504
2023-01-18T17:42:41.617Z,-0.049133
2023-01-18T17:46:07.164Z,-0.230408
2023-01-18T17:49:32.492Z,-0.250549
2023-01-18T17:52:58.300Z,-0.180054
2023-01-18T17:56:23.468Z,-0.220337
2023-01-18T17:59:48.767Z,-0.250549
2023-01-18T18:03:16.794Z,-0.250549
2023-01-18T18:06:49.687Z,-0.341187
2023-01-18T18:10:08.591Z,-0.492249
2023-01-18T18:13:34.510Z,-0.552673
2023-01-18T18:17:00.983Z,-0.733948
2023-01-18T18:20:26.483Z,-0.754089
2023-01-18T18:23:51.968Z,-0.643311
2023-01-18T18:27:17.363Z,-0.653381
2023-01-18T18:30:43.177Z,-0.723877
2023-01-18T18:34:08.649Z,-0.754089
2023-01-18T18:37:34.180Z,-0.794373
2023-01-18T18:40:59.550Z,-0.723877
2023-01-18T18:44:24.959Z,-0.613098
2023-01-18T18:47:50.254Z,-0.613098
2023-01-18T18:51:15.597Z,-0.653381
2023-01-18T18:54:40.833Z,-0.76416
2023-01-18T18:58:06.116Z,-1.036072
2023-01-18T19:01:31.511Z,-1.459045
2023-01-18T19:04:56.618Z,-2.204285
2023-01-18T19:08:21.878Z,-2.627258
2023-01-18T19:11:50.736Z,-2.77832
2023-01-18T19:15:12.391Z,-2.879028
2023-01-18T19:18:37.718Z,-2.858887
2023-01-18T19:22:03.081Z,-2.969666
2023-01-18T19:25:28.323Z,-3.332214
2023-01-18T19:28:53.648Z,-3.624268
2023-01-18T19:32:18.925Z,-3.896179
2023-01-18T19:35:44.197Z,-4.147949
2023-01-18T19:39:17.988Z,-4.006958
2023-01-18T19:42:34.749Z,-3.815613
2023-01-18T19:46:00.078Z,-3.483276
2023-01-18T19:49:25.429Z,-3.241577
2023-01-18T19:52:50.704Z,-3.120728
2023-01-18T19:56:15.977Z,-2.818604
2023-01-18T19:59:41.242Z,-2.445984
2023-01-18T20:03:06.552Z,-2.204285
2023-01-18T20:06:31.806Z,-2.123718
2023-01-18T20:09:57.059Z,-2.153931
2023-01-18T20:13:22.370Z,-2.27478
2023-01-18T20:16:47.638Z,-2.385559
2023-01-18T20:20:18.394Z,-2.486267
2023-01-18T20:23:38.131Z,-2.52655
2023-01-18T20:27:14.722Z,-2.486267
2023-01-18T20:30:28.676Z,-2.425842
2023-01-18T20:33:53.964Z,-2.39563
2023-01-18T20:37:19.305Z,-2.385559
2023-01-18T20:40:44.578Z,-2.264709
2023-01-18T20:44:09.867Z,-2.264709
2023-01-18T20:47:35.146Z,-2.496338
2023-01-18T20:51:00.497Z,-2.657471
2023-01-18T20:54:25.798Z,-2.738037
2023-01-18T20:57:51.063Z,-2.959595
2023-01-18T21:01:16.423Z,-3.181152
2023-01-18T21:04:41.634Z,-3.412781
2023-01-18T21:08:06.897Z,-3.483276
2023-01-18T21:11:32.199Z,-3.664551
2023-01-18T21:14:57.541Z,-3.815613
2023-01-18T21:18:22.826Z,-3.724976
2023-01-18T21:21:48.131Z,-3.956604
2023-01-18T21:25:13.387Z,-3.996887
2023-01-18T21:28:38.684Z,-3.876038
2023-01-18T21:32:04.020Z,-3.755188
2023-01-18T21:35:29.272Z,-3.694763
2023-01-18T21:38:54.543Z,-3.714905
2023-01-18T21:42:19.775Z,-3.815613
2023-01-18T21:45:45.174Z,-3.845825
2023-01-18T21:49:10.396Z,-3.966675
2023-01-18T21:52:35.680Z,-3.956604
2023-01-18T21:56:01.067Z,-3.966675
2023-01-18T21:59:26.300Z,-4.107666
2023-01-18T22:02:51.618Z,-4.198303
2023-01-18T22:06:16.853Z,-3.936462
2023-01-18T22:09:43.855Z,-3.594055
2023-01-18T22:13:07.451Z,-3.302002
2023-01-18T22:16:32.769Z,-3.090515
2023-01-18T22:19:57.945Z,-2.858887
2023-01-18T22:23:23.190Z,-2.808533
2023-01-18T22:26:48.454Z,-2.77832
2023-01-18T22:30:13.820Z,-2.707825
2023-01-18T22:33:39.008Z,-2.707825
2023-01-18T22:37:04.269Z,-2.677612
2023-01-18T22:40:29.536Z,-2.697754
2023-01-18T22:43:54.822Z,-2.657471
2023-01-18T22:47:20.182Z,-2.697754
2023-01-18T22:50:45.328Z,-2.667542
2023-01-18T22:54:10.582Z,-2.677612
2023-01-18T22:57:35.883Z,-2.546692
2023-01-18T23:01:01.159Z,-2.657471
2023-01-18T23:04:26.419Z,-2.637329
2023-01-18T23:07:51.650Z,-2.657471
2023-01-18T23:11:16.920Z,-2.697754
2023-01-18T23:14:42.175Z,-2.677612
2023-01-18T23:18:07.459Z,-2.637329
2023-01-18T23:21:32.757Z,-2.727966
2023-01-18T23:24:57.989Z,-2.657471
2023-01-18T23:28:23.246Z,-2.607117
2023-01-18T23:31:48.510Z,-2.677612
2023-01-18T23:35:13.744Z,-2.738037
2023-01-18T23:38:39.140Z,-2.879028
2023-01-18T23:42:04.271Z,-2.959595
2023-01-18T23:45:29.795Z,-2.909241
2023-01-18T23:48:54.820Z,-2.919312
2023-01-18T23:52:20.099Z,-3.03009
2023-01-18T23:55:45.371Z,-3.090515
2023-01-18T23:59:10.599Z,-3.15094
